Time;durP1;ratioP1;P1;durP2;ratioP2;P2;SDS_P1;SDS_P2;PMS_P1;PMS_P2;Temp;Humidity;BMP_temperature;BMP_pressure;BME280_temperature;BME280_humidity;BME280_pressure;Samples;Min_cycle;Max_cycle;Signal;HPM_P1;HPM_P2
2022/09/24 00:01:17;;;;;;;25.70;11.90;;;;;;;14.28;78.86;100891.50;5052222;28;20041;-56
2022/09/24 00:03:49;;;;;;;25.17;11.85;;;;;;;14.34;78.37;100891.66;5064314;28;20087;-55
2022/09/24 00:06:18;;;;;;;24.88;11.70;;;;;;;14.32;79.34;100882.16;5066237;28;20068;-56
2022/09/24 00:08:47;;;;;;;29.00;13.27;;;;;;;14.26;79.03;100886.38;5052504;28;20044;-55
2022/09/24 00:11:15;;;;;;;25.45;13.18;;;;;;;14.14;79.51;100887.75;5051140;28;20556;-55
2022/09/24 00:13:41;;;;;;;29.77;13.45;;;;;;;14.21;79.69;100886.88;5052297;28;20106;-56
2022/09/24 00:16:11;;;;;;;30.20;12.88;;;;;;;14.16;79.53;100888.41;5051155;28;20041;-55
2022/09/24 00:18:39;;;;;;;21.80;11.00;;;;;;;14.16;79.68;100889.22;5052342;28;20045;-55
2022/09/24 00:21:24;;;;;;;26.48;12.45;;;;;;;14.12;80.68;100895.09;5050938;28;20040;-55
2022/09/24 00:23:55;;;;;;;27.02;13.48;;;;;;;14.16;80.78;100891.91;5055285;28;20055;-55
2022/09/24 00:26:53;;;;;;;31.05;12.10;;;;;;;14.16;80.96;100897.22;5055921;28;20491;-54
2022/09/24 00:29:12;;;;;;;29.95;12.20;;;;;;;14.13;80.65;100896.75;5055389;28;20453;-55
2022/09/24 00:31:40;;;;;;;26.58;12.18;;;;;;;14.09;81.57;100896.25;5056030;28;20059;-56
2022/09/24 00:34:07;;;;;;;29.13;12.35;;;;;;;14.14;81.43;100888.56;5054661;28;20096;-56
2022/09/24 00:36:34;;;;;;;24.00;12.55;;;;;;;14.13;81.96;100886.91;5053513;28;20410;-54
2022/09/24 00:39:01;;;;;;;26.17;12.85;;;;;;;14.07;82.06;100895.59;5055759;28;20059;-54
2022/09/24 00:41:32;;;;;;;25.05;12.30;;;;;;;14.05;82.25;100888.78;5055708;28;20045;-54
2022/09/24 00:43:59;;;;;;;29.63;12.77;;;;;;;14.09;82.17;100898.09;5054939;28;20064;-53
2022/09/24 00:46:36;;;;;;;25.88;12.30;;;;;;;14.10;81.85;100886.41;5055636;28;20049;-54
2022/09/24 00:49:11;;;;;;;26.25;12.65;;;;;;;14.09;81.51;100898.09;5055804;28;20098;-56
2022/09/24 00:51:40;;;;;;;25.02;12.80;;;;;;;14.15;81.16;100892.91;4944415;28;20540;-54
2022/09/24 00:54:15;;;;;;;25.52;12.77;;;;;;;14.10;81.49;100884.59;5055719;28;20045;-55
2022/09/24 00:56:43;;;;;;;25.23;12.82;;;;;;;14.09;81.98;100890.94;5054466;28;20594;-55
2022/09/24 00:59:12;;;;;;;28.00;13.75;;;;;;;14.14;82.71;100891.25;5055430;28;20079;-54
2022/09/24 01:01:39;;;;;;;26.30;13.43;;;;;;;14.14;82.53;100891.25;5055502;28;20428;-55
2022/09/24 01:04:06;;;;;;;31.95;13.63;;;;;;;14.04;82.56;100889.78;5053493;28;20376;-55
2022/09/24 01:06:33;;;;;;;29.85;13.48;;;;;;;13.92;83.13;100884.84;5052256;28;20041;-54
2022/09/24 01:08:59;;;;;;;28.55;13.25;;;;;;;14.06;82.27;100879.78;5055487;28;20505;-55
2022/09/24 01:12:06;;;;;;;29.58;13.88;;;;;;;14.15;81.98;100876.91;5054036;28;20045;-55
2022/09/24 01:15:14;;;;;;;29.25;13.73;;;;;;;14.12;82.51;100879.09;5055240;28;20045;-54
2022/09/24 01:18:06;;;;;;;27.77;14.25;;;;;;;14.10;82.10;100881.94;5054924;28;20394;-55
2022/09/24 01:23:47;;;;;;;25.92;13.43;;;;;;;14.09;83.36;100864.25;5110696;27;20368;-54
2022/09/24 01:26:44;;;;;;;27.13;12.75;;;;;;;14.07;83.29;100862.78;5110683;28;20032;-54
2022/09/24 01:32:37;;;;;;;36.33;13.80;;;;;;;13.98;83.38;100865.47;5070283;28;20353;-53
2022/09/24 01:35:15;;;;;;;30.77;13.27;;;;;;;13.85;83.82;100862.53;5070358;28;20448;-54
2022/09/24 01:37:47;;;;;;;32.53;13.45;;;;;;;13.80;84.63;100862.19;5069834;28;20045;-54
2022/09/24 01:40:16;;;;;;;31.02;13.80;;;;;;;13.71;84.95;100858.72;5070501;28;20120;-54
2022/09/24 01:42:45;;;;;;;28.88;13.65;;;;;;;13.73;84.87;100866.56;5060721;28;20059;-54
2022/09/24 01:45:13;;;;;;;24.42;13.15;;;;;;;13.73;85.15;100853.22;5070485;28;20102;-54
2022/09/24 01:47:41;;;;;;;27.55;13.45;;;;;;;13.75;84.92;100860.06;5069316;28;20052;-55
2022/09/24 01:50:12;;;;;;;23.75;13.13;;;;;;;13.85;84.83;100851.84;5068663;28;20049;-55
2022/09/24 01:52:45;;;;;;;27.25;14.07;;;;;;;13.87;85.30;100849.84;4956084;28;20045;-55
2022/09/24 01:55:16;;;;;;;30.33;13.40;;;;;;;13.87;84.94;100849.84;5070056;28;20045;-54
2022/09/24 01:57:48;;;;;;;29.63;12.93;;;;;;;13.82;85.04;100846.88;5070261;28;20049;-55
2022/09/24 02:00:19;;;;;;;30.73;13.23;;;;;;;13.72;85.58;100844.41;5069679;28;20114;-56
2022/09/24 02:02:53;;;;;;;26.83;13.30;;;;;;;13.78;85.46;100846.38;5069982;28;20103;-53
2022/09/24 02:05:28;;;;;;;27.15;13.15;;;;;;;13.84;85.89;100847.53;5069426;28;20049;-55
2022/09/24 02:08:17;;;;;;;27.60;13.45;;;;;;;13.79;85.58;100848.06;5068354;28;20133;-55
2022/09/24 02:10:54;;;;;;;29.10;14.13;;;;;;;13.74;85.92;100836.25;5069202;28;20399;-54
2022/09/24 02:13:25;;;;;;;28.10;13.05;;;;;;;13.78;86.06;100829.56;5036119;28;20048;-54
2022/09/24 02:15:58;;;;;;;28.95;12.80;;;;;;;13.86;85.75;100834.88;5069698;28;20045;-58
2022/09/24 02:18:32;;;;;;;28.38;13.60;;;;;;;13.88;85.90;100832.00;5069033;28;20051;-55
2022/09/24 02:21:02;;;;;;;33.60;13.27;;;;;;;13.87;86.11;100838.34;5068124;28;20041;-55
2022/09/24 02:23:32;;;;;;;28.73;13.48;;;;;;;13.87;85.89;100828.50;5069341;28;20068;-55
2022/09/24 02:26:01;;;;;;;27.27;13.15;;;;;;;13.83;86.30;100836.03;5069290;28;20041;-55
2022/09/24 02:28:30;;;;;;;27.10;13.00;;;;;;;13.86;85.96;100829.53;5069299;28;20044;-54
2022/09/24 02:31:17;;;;;;;28.02;13.20;;;;;;;13.89;85.28;100825.69;5068765;28;20106;-55
2022/09/24 02:36:34;;;;;;;27.48;13.32;;;;;;;13.95;84.95;100815.16;5068056;28;20076;-55
2022/09/24 02:39:02;;;;;;;25.92;12.82;;;;;;;14.01;84.66;100808.28;5068919;28;20048;-55
2022/09/24 02:41:30;;;;;;;28.65;13.73;;;;;;;13.97;84.80;100812.28;5067321;28;20044;-55
2022/09/24 02:43:57;;;;;;;29.23;13.45;;;;;;;13.96;85.27;100810.66;5055598;28;20449;-55
2022/09/24 02:46:24;;;;;;;27.70;13.60;;;;;;;13.93;85.27;100808.31;5055685;28;20056;-55
2022/09/24 02:48:52;;;;;;;26.15;13.07;;;;;;;13.96;85.08;100800.81;5054919;28;20056;-55
2022/09/24 02:51:20;;;;;;;28.50;12.32;;;;;;;13.85;85.13;100805.72;4934179;28;20451;-55
2022/09/24 02:53:47;;;;;;;26.13;12.88;;;;;;;13.92;85.15;100799.50;5054471;28;20048;-55
2022/09/24 02:56:13;;;;;;;32.63;12.70;;;;;;;14.01;84.25;100797.63;5055704;28;20052;-56
2022/09/24 02:58:41;;;;;;;24.85;11.30;;;;;;;14.01;84.68;100793.13;5055520;28;20459;-55
2022/09/24 03:01:08;;;;;;;22.90;12.10;;;;;;;13.93;84.33;100798.47;5054400;28;20045;-55
2022/09/24 03:03:34;;;;;;;24.92;11.73;;;;;;;13.93;84.74;100797.66;5054683;28;20463;-55
2022/09/24 03:06:01;;;;;;;28.17;12.10;;;;;;;13.85;84.64;100789.72;5055177;28;20091;-55
2022/09/24 03:08:29;;;;;;;22.90;11.63;;;;;;;13.85;84.32;100787.88;5052766;28;20102;-54
2022/09/24 03:10:55;;;;;;;24.23;12.05;;;;;;;13.80;85.06;100785.72;5055461;28;20076;-55
2022/09/24 03:13:22;;;;;;;26.15;12.07;;;;;;;13.83;84.80;100784.53;5055283;28;20494;-55
2022/09/24 03:15:49;;;;;;;29.67;11.75;;;;;;;13.63;85.34;100779.63;5037395;28;20463;-55
2022/09/24 03:18:15;;;;;;;22.85;12.27;;;;;;;13.68;84.98;100781.78;5054920;28;20041;-55
2022/09/24 03:20:42;;;;;;;23.35;12.18;;;;;;;13.74;85.16;100778.41;5054837;28;20041;-55
2022/09/24 03:23:09;;;;;;;26.70;11.95;;;;;;;13.72;85.00;100779.59;5020845;28;20091;-55
2022/09/24 03:25:35;;;;;;;22.02;12.02;;;;;;;13.62;85.27;100782.47;5055141;28;20055;-54
2022/09/24 03:28:02;;;;;;;24.65;12.35;;;;;;;13.66;85.62;100782.94;5055190;28;20102;-54
2022/09/24 03:31:00;;;;;;;26.83;12.65;;;;;;;13.64;85.66;100775.13;5054359;28;20132;-57
2022/09/24 03:33:15;;;;;;;37.63;11.90;;;;;;;13.53;85.42;100771.00;5053586;28;20483;-55
2022/09/24 03:35:42;;;;;;;24.77;11.85;;;;;;;13.52;86.05;100772.03;5054917;28;20071;-56
2022/09/24 03:38:09;;;;;;;25.77;12.02;;;;;;;13.47;85.80;100765.53;5053900;28;20529;-55
2022/09/24 03:40:35;;;;;;;30.92;12.07;;;;;;;13.46;85.31;100763.88;5054851;28;20559;-55
2022/09/24 03:43:02;;;;;;;26.27;11.38;;;;;;;13.46;85.78;100763.88;5054575;28;20049;-54
2022/09/24 03:45:29;;;;;;;25.30;12.27;;;;;;;13.52;85.80;100760.53;5054843;28;20450;-54
2022/09/24 03:47:56;;;;;;;24.95;12.05;;;;;;;13.52;85.24;100760.53;5054757;28;20131;-54
2022/09/24 03:50:23;;;;;;;27.73;11.50;;;;;;;13.49;85.03;100760.88;5053898;28;20028;-54
2022/09/24 03:52:50;;;;;;;23.38;10.80;;;;;;;13.49;84.68;100760.88;4932848;28;20132;-55
2022/09/24 03:55:17;;;;;;;27.95;11.88;;;;;;;13.38;85.03;100760.22;5053016;28;20052;-55
2022/09/24 03:57:44;;;;;;;21.35;11.27;;;;;;;13.35;85.52;100757.06;5054526;28;20057;-55
2022/09/24 04:00:11;;;;;;;27.92;11.50;;;;;;;13.24;85.71;100764.44;5054216;28;20045;-55
2022/09/24 04:02:39;;;;;;;21.65;10.45;;;;;;;13.24;85.80;100767.09;5054244;28;20119;-55
2022/09/24 04:05:06;;;;;;;22.50;10.73;;;;;;;13.25;85.52;100759.91;5053662;28;20045;-55
2022/09/24 04:07:33;;;;;;;45.05;12.35;;;;;;;13.35;85.25;100762.41;5036388;28;20090;-55
2022/09/24 04:10:00;;;;;;;20.58;10.73;;;;;;;13.38;85.62;100762.06;5053994;28;20449;-55
2022/09/24 04:12:28;;;;;;;23.77;11.45;;;;;;;13.34;85.47;100756.25;5052572;28;20041;-55
2022/09/24 04:14:54;;;;;;;26.17;10.77;;;;;;;13.37;85.27;100763.91;5054037;28;20103;-55
2022/09/24 04:17:21;;;;;;;29.25;11.73;;;;;;;13.38;85.38;100759.41;5053747;28;20422;-54
2022/09/24 04:19:50;;;;;;;24.55;11.38;;;;;;;13.32;85.73;100762.78;5053804;28;20040;-55
2022/09/24 04:22:18;;;;;;;32.45;13.82;;;;;;;13.26;85.30;100766.88;5053420;28;20041;-55
2022/09/24 04:24:44;;;;;;;30.08;14.25;;;;;;;13.27;85.71;100757.09;5054176;28;20041;-54
2022/09/24 04:27:11;;;;;;;29.73;13.15;;;;;;;13.30;85.41;100754.06;5054027;28;20056;-54
2022/09/24 04:29:38;;;;;;;30.55;12.82;;;;;;;13.28;85.68;100751.59;5053781;28;20495;-55
2022/09/24 04:32:04;;;;;;;30.17;13.15;;;;;;;13.18;85.57;100761.59;5053393;28;20064;-55
2022/09/24 04:34:32;;;;;;;26.67;12.77;;;;;;;13.30;86.01;100762.06;5053699;28;20075;-55
2022/09/24 04:36:58;;;;;;;27.23;13.25;;;;;;;13.13;85.82;100761.28;5053371;28;20041;-55
2022/09/24 04:39:26;;;;;;;22.83;11.60;;;;;;;13.18;85.80;100759.75;5051977;28;20079;-55
2022/09/24 04:41:53;;;;;;;26.20;11.88;;;;;;;13.10;85.47;100761.59;5052445;28;20048;-54
2022/09/24 04:44:20;;;;;;;26.77;11.77;;;;;;;13.24;85.60;100759.09;5053787;28;20053;-54
2022/09/24 04:46:46;;;;;;;25.67;11.73;;;;;;;13.26;85.31;100766.88;5053255;28;20094;-55
2022/09/24 04:49:14;;;;;;;22.52;11.85;;;;;;;13.20;85.62;100764.94;5053701;28;20047;-55
2022/09/24 04:51:41;;;;;;;22.95;11.25;;;;;;;13.20;86.01;100757.75;4930272;28;20394;-55
2022/09/24 04:54:09;;;;;;;23.17;11.38;;;;;;;13.19;86.05;100758.78;5052156;28;20106;-55
2022/09/24 04:56:35;;;;;;;25.90;12.05;;;;;;;13.16;86.19;100761.75;5052986;28;20037;-55
2022/09/24 04:59:03;;;;;;;22.77;13.27;;;;;;;13.17;86.51;100765.25;5053538;28;20399;-55
2022/09/24 05:01:29;;;;;;;27.55;12.23;;;;;;;13.19;85.71;100763.28;5053448;28;20045;-56
2022/09/24 05:03:56;;;;;;;26.23;12.93;;;;;;;13.16;86.73;100761.75;5052670;28;20041;-54
2022/09/24 05:06:23;;;;;;;26.35;12.27;;;;;;;13.19;86.04;100753.44;5053224;28;20048;-55
2022/09/24 05:08:49;;;;;;;28.70;12.48;;;;;;;13.22;86.25;100761.09;5051026;28;20045;-55
2022/09/24 05:11:18;;;;;;;24.20;12.32;;;;;;;13.23;86.27;100762.75;5053160;28;20486;-55
2022/09/24 05:13:44;;;;;;;23.08;12.23;;;;;;;13.25;85.99;100766.06;5052778;28;20453;-55
2022/09/24 05:16:11;;;;;;;25.55;11.55;;;;;;;13.21;86.51;100759.44;5053533;28;20056;-55
2022/09/24 05:18:38;;;;;;;20.80;11.98;;;;;;;13.18;86.03;100765.09;5052885;28;20119;-55
2022/09/24 05:21:05;;;;;;;22.42;11.57;;;;;;;13.10;86.79;100761.59;5052787;28;20335;-55
2022/09/24 05:23:31;;;;;;;30.80;12.20;;;;;;;13.16;87.06;100761.75;5052790;28;20045;-55
2022/09/24 05:28:44;;;;;;;25.85;11.70;;;;;;;12.96;87.63;100763.97;5052913;28;20072;-55
2022/09/24 05:31:11;;;;;;;26.77;12.13;;;;;;;12.98;87.78;100758.47;5052263;28;20049;-55
2022/09/24 05:33:38;;;;;;;27.88;13.45;;;;;;;13.14;87.51;100758.44;5053160;28;20053;-55
2022/09/24 05:36:05;;;;;;;27.10;13.30;;;;;;;13.02;87.61;100755.31;5051836;28;20498;-55
2022/09/24 05:38:32;;;;;;;26.45;13.43;;;;;;;13.09;86.96;100759.97;5052470;28;20519;-55
2022/09/24 05:40:59;;;;;;;28.05;14.05;;;;;;;13.03;87.80;100753.50;5053026;28;20049;-54
2022/09/24 05:43:27;;;;;;;29.73;13.68;;;;;;;13.07;87.98;100758.28;5052855;28;20060;-55
2022/09/24 05:45:53;;;;;;;31.30;14.18;;;;;;;13.15;87.97;100759.28;5053077;28;20445;-54
2022/09/24 05:48:20;;;;;;;32.75;15.43;;;;;;;13.09;87.94;100768.78;5052774;28;20052;-56
2022/09/24 05:50:47;;;;;;;32.72;14.52;;;;;;;13.14;87.58;100770.94;5053025;28;20056;-56
2022/09/24 05:53:14;;;;;;;34.50;15.27;;;;;;;13.13;87.37;100766.59;4924897;28;20215;-55
2022/09/24 05:55:42;;;;;;;29.30;15.13;;;;;;;13.11;87.69;100771.28;5052720;28;20516;-55
2022/09/24 05:58:09;;;;;;;30.20;14.32;;;;;;;13.09;87.89;100776.75;5052941;28;20045;-55
2022/09/24 06:00:36;;;;;;;31.48;14.90;;;;;;;13.17;88.71;100776.75;5052179;28;20450;-54
2022/09/24 06:03:08;;;;;;;35.92;14.63;;;;;;;13.11;88.63;100781.94;5052245;28;20446;-55
2022/09/24 06:05:34;;;;;;;27.13;14.10;;;;;;;13.17;88.87;100774.09;5051863;28;20041;-54
2022/09/24 06:08:03;;;;;;;23.90;13.48;;;;;;;13.24;87.96;100774.22;5051378;28;20490;-55
2022/09/24 06:10:30;;;;;;;32.08;14.07;;;;;;;13.29;88.09;100779.06;5052042;28;20403;-55
2022/09/24 06:12:57;;;;;;;27.63;14.35;;;;;;;13.29;87.81;100782.53;5052618;28;20045;-55
2022/09/24 06:15:26;;;;;;;27.85;13.80;;;;;;;13.39;87.78;100783.22;5052423;28;20051;-54
2022/09/24 06:17:53;;;;;;;28.35;14.38;;;;;;;13.46;87.30;100779.84;5054123;28;20041;-54
2022/09/24 06:20:40;;;;;;;29.50;14.48;;;;;;;13.41;87.81;100778.56;5055824;28;20052;-55
2022/09/24 06:23:06;;;;;;;33.17;14.55;;;;;;;13.47;87.32;100778.88;5054662;28;20132;-55
2022/09/24 06:25:33;;;;;;;26.48;14.95;;;;;;;13.36;87.23;100782.72;5056329;28;20451;-55
2022/09/24 06:28:02;;;;;;;26.67;15.27;;;;;;;13.44;86.73;100782.69;5055850;28;20049;-55
2022/09/24 06:30:32;;;;;;;29.55;15.20;;;;;;;13.47;86.72;100784.19;5055819;28;20053;-54
2022/09/24 06:33:04;;;;;;;27.27;14.27;;;;;;;13.54;86.57;100785.19;5054459;28;20049;-55
2022/09/24 06:35:34;;;;;;;30.10;15.30;;;;;;;13.63;86.15;100787.63;5056042;28;20041;-54
2022/09/24 06:38:02;;;;;;;28.58;16.13;;;;;;;13.69;85.55;100788.75;5035653;28;20951;-55
2022/09/24 06:40:29;;;;;;;30.83;16.30;;;;;;;13.62;85.49;100787.78;5035760;28;20045;-54
2022/09/24 06:42:59;;;;;;;35.05;16.23;;;;;;;13.49;86.24;100784.84;5034847;28;20048;-55
2022/09/24 06:45:27;;;;;;;28.15;14.45;;;;;;;13.61;85.17;100789.63;5035844;28;20049;-55
2022/09/24 06:47:55;;;;;;;32.95;16.50;;;;;;;13.56;85.30;100793.81;5035625;28;20137;-55
2022/09/24 06:50:24;;;;;;;31.63;15.57;;;;;;;13.71;84.52;100794.75;5035887;28;20140;-55
2022/09/24 06:52:50;;;;;;;29.25;15.55;;;;;;;13.85;84.19;100793.19;5035419;28;20046;-55
2022/09/24 06:55:18;;;;;;;38.38;16.70;;;;;;;13.89;83.63;100794.50;5035981;28;20127;-55
2022/09/24 06:57:45;;;;;;;27.50;15.80;;;;;;;13.91;83.85;100791.66;5035401;28;20450;-55
2022/09/24 07:00:12;;;;;;;31.75;16.38;;;;;;;13.72;83.93;100793.75;5045599;28;20124;-55
2022/09/24 07:02:40;;;;;;;29.60;16.27;;;;;;;13.83;83.67;100793.38;5054932;28;20041;-55
2022/09/24 07:05:08;;;;;;;29.88;16.25;;;;;;;13.86;84.19;100786.88;5055201;28;20067;-55
2022/09/24 07:07:36;;;;;;;37.17;17.40;;;;;;;14.00;83.33;100794.09;5051309;28;20045;-55
2022/09/24 07:10:05;;;;;;;32.30;15.90;;;;;;;14.15;82.95;100798.69;5043526;28;20049;-55
2022/09/24 07:12:34;;;;;;;38.67;16.77;;;;;;;14.16;83.39;100793.19;5055162;28;20049;-55
2022/09/24 07:15:02;;;;;;;37.67;16.65;;;;;;;14.01;83.21;100793.13;5055034;28;20045;-55
2022/09/24 07:17:28;;;;;;;30.38;16.83;;;;;;;14.00;83.16;100793.28;5055289;28;20103;-55
2022/09/24 07:19:58;;;;;;;31.05;16.20;;;;;;;13.99;83.17;100799.63;5046842;28;20037;-54
2022/09/24 07:22:25;;;;;;;31.83;16.55;;;;;;;14.16;83.19;100808.38;5036970;28;20050;-53
2022/09/24 07:24:52;;;;;;;27.05;16.13;;;;;;;14.00;83.54;100809.28;5033719;28;20049;-53
2022/09/24 07:27:20;;;;;;;29.33;15.70;;;;;;;14.15;83.21;100812.03;5053089;28;20045;-52
2022/09/24 07:29:47;;;;;;;34.33;15.60;;;;;;;14.10;83.72;100811.72;5054118;28;20053;-52
2022/09/24 07:32:16;;;;;;;32.20;16.80;;;;;;;14.08;83.30;100811.06;5054057;28;20037;-56
2022/09/24 07:34:42;;;;;;;30.35;16.55;;;;;;;14.13;83.32;100817.53;5054257;28;20040;-55
2022/09/24 07:37:09;;;;;;;31.35;16.45;;;;;;;14.04;84.02;100826.59;5047850;28;20547;-54
2022/09/24 07:39:36;;;;;;;32.42;17.20;;;;;;;14.12;83.86;100815.06;5037875;28;20518;-54
2022/09/24 07:42:04;;;;;;;33.55;16.55;;;;;;;14.21;83.37;100814.84;5033946;28;20495;-54
2022/09/24 07:44:31;;;;;;;29.58;17.73;;;;;;;14.25;83.28;100817.16;5038154;28;20099;-55
2022/09/24 07:46:58;;;;;;;31.67;17.25;;;;;;;14.37;82.63;100821.06;5054566;28;20045;-54
2022/09/24 07:49:25;;;;;;;36.00;17.90;;;;;;;14.38;82.25;100818.22;5054342;28;20049;-54
2022/09/24 07:51:52;;;;;;;42.35;19.27;;;;;;;14.31;82.89;100821.78;4939254;28;20041;-55
2022/09/24 07:54:19;;;;;;;35.95;18.52;;;;;;;14.37;82.17;100821.06;5053904;28;20399;-55
2022/09/24 07:56:47;;;;;;;37.03;19.30;;;;;;;14.29;82.05;100819.28;5053152;28;20136;-55
2022/09/24 07:59:13;;;;;;;35.53;20.25;;;;;;;14.16;82.28;100819.03;5054176;28;20064;-54
2022/09/24 08:01:40;;;;;;;41.80;19.73;;;;;;;14.16;83.33;100824.38;5054321;28;20075;-55
2022/09/24 08:04:06;;;;;;;42.15;20.10;;;;;;;14.21;82.64;100827.34;5053568;28;20056;-55
2022/09/24 08:06:35;;;;;;;38.10;19.20;;;;;;;14.28;82.65;100824.78;5032776;28;20049;-54
2022/09/24 08:09:04;;;;;;;33.40;19.85;;;;;;;14.36;81.84;100825.56;5034313;28;20045;-55
2022/09/24 08:11:32;;;;;;;36.13;19.95;;;;;;;14.28;82.86;100825.66;5049444;28;20045;-54
2022/09/24 08:13:59;;;;;;;38.28;20.38;;;;;;;14.48;83.03;100826.03;5054284;28;20052;-54
2022/09/24 08:16:26;;;;;;;40.38;20.90;;;;;;;14.52;82.31;100835.31;5053651;28;20211;-54
2022/09/24 08:18:53;;;;;;;38.67;20.13;;;;;;;14.65;82.15;100834.75;5053860;28;20052;-55
2022/09/24 08:21:20;;;;;;;35.42;19.48;;;;;;;14.76;82.17;100834.34;5053781;28;20053;-54
2022/09/24 08:23:47;;;;;;;35.70;19.17;;;;;;;14.86;82.27;100831.44;5053536;28;20096;-54
2022/09/24 08:26:14;;;;;;;37.67;19.63;;;;;;;14.90;81.26;100830.06;5053485;28;20044;-56
2022/09/24 08:28:40;;;;;;;35.13;21.40;;;;;;;14.82;81.29;100829.28;5053925;28;20407;-56
2022/09/24 08:31:11;;;;;;;38.25;21.27;;;;;;;14.79;81.85;100822.47;5053259;28;20105;-55
2022/09/24 08:33:38;;;;;;;46.92;22.40;;;;;;;14.76;81.81;100822.81;5053517;28;20036;-54
2022/09/24 08:36:07;;;;;;;39.47;22.63;;;;;;;15.08;81.61;100821.72;5053492;28;20399;-54
2022/09/24 08:38:35;;;;;;;36.85;22.58;;;;;;;15.09;80.81;100826.03;5053034;28;20045;-54
2022/09/24 08:44:10;;;;;;;42.20;24.33;;;;;;;15.22;80.87;100833.41;5070626;28;20374;-50
2022/09/24 08:49:42;;;;;;;37.10;22.95;;;;;;;15.42;79.50;100827.53;5070142;28;20438;-52
2022/09/24 08:52:49;;;;;;;47.35;25.48;;;;;;;15.34;78.78;100836.50;4946627;28;20049;-52
2022/09/24 08:55:28;;;;;;;41.70;24.98;;;;;;;15.41;78.50;100837.41;5069724;28;20409;-52
2022/09/24 09:01:04;;;;;;;44.85;25.13;;;;;;;15.22;80.02;100845.97;5131358;27;20189;-51
2022/09/24 09:03:53;;;;;;;44.17;24.27;;;;;;;15.42;79.53;100841.72;5109777;28;20036;-51
2022/09/24 09:06:52;;;;;;;45.05;24.33;;;;;;;15.42;78.56;100839.06;5103928;28;20045;-51
2022/09/24 09:09:24;;;;;;;44.28;24.27;;;;;;;15.27;78.50;100839.06;5089724;28;20056;-50
2022/09/24 09:11:58;;;;;;;44.78;24.13;;;;;;;15.28;78.67;100837.19;5090642;28;20040;-50
2022/09/24 09:14:58;;;;;;;43.53;24.35;;;;;;;15.37;77.66;100844.13;5089865;28;20036;-49
2022/09/24 09:17:33;;;;;;;39.95;24.75;;;;;;;15.36;78.85;100845.97;5090228;28;20520;-50
2022/09/24 09:20:04;;;;;;;43.17;22.80;;;;;;;15.49;77.36;100839.16;5071559;28;20086;-52
2022/09/24 09:22:38;;;;;;;39.67;22.95;;;;;;;15.58;76.67;100839.91;5090314;28;20052;-50
2022/09/24 09:25:17;;;;;;;37.75;22.35;;;;;;;16.31;75.70;100838.97;5089881;28;20071;-53
2022/09/24 09:27:45;;;;;;;45.40;23.20;;;;;;;16.72;72.23;100837.56;5090193;28;20048;-53
2022/09/24 09:30:15;;;;;;;37.55;21.20;;;;;;;16.93;71.73;100843.94;5109331;28;20058;-53
2022/09/24 09:33:19;;;;;;;54.38;24.15;;;;;;;16.92;69.87;100842.25;5076316;28;20047;-51
2022/09/24 09:35:57;;;;;;;45.17;22.27;;;;;;;17.21;68.93;100846.66;5089702;28;20115;-53
2022/09/24 09:38:41;;;;;;;44.40;23.15;;;;;;;17.10;67.95;100848.00;5089655;28;20500;-50
2022/09/24 09:41:23;;;;;;;40.10;21.33;;;;;;;17.69;67.20;100840.53;5089860;28;20058;-53
2022/09/24 09:43:58;;;;;;;43.70;25.25;;;;;;;18.02;65.94;100836.16;5071934;28;20047;-53
2022/09/24 09:46:32;;;;;;;46.85;26.98;;;;;;;18.02;65.88;100835.34;5089649;28;20090;-52
2022/09/24 09:49:04;;;;;;;43.35;28.02;;;;;;;18.04;65.99;100835.97;5089544;28;20494;-50
2022/09/24 09:51:43;;;;;;;56.13;35.55;;;;;;;18.54;65.36;100831.16;4958492;28;20047;-53
2022/09/24 09:54:10;;;;;;;74.57;38.20;;;;;;;18.82;63.27;100826.66;5089108;28;20102;-50
2022/09/24 09:56:43;;;;;;;63.90;37.78;;;;;;;18.97;62.30;100835.31;5089399;28;20044;-50
2022/09/24 10:01:54;;;;;;;52.65;31.98;;;;;;;19.23;60.09;100836.34;5110834;27;20381;-52
2022/09/24 10:04:39;;;;;;;50.60;28.70;;;;;;;19.79;58.34;100835.00;5110281;28;20461;-53
2022/09/24 10:07:10;;;;;;;44.50;26.83;;;;;;;20.50;56.15;100834.84;5110718;28;20054;-53
2022/09/24 10:09:38;;;;;;;48.53;27.30;;;;;;;20.04;56.86;100829.72;5109557;28;20050;-53
2022/09/24 10:12:15;;;;;;;46.38;26.25;;;;;;;19.56;59.08;100831.72;5110704;28;20121;-53
2022/09/24 10:14:43;;;;;;;45.90;27.98;;;;;;;18.90;59.33;100832.66;5109950;28;20043;-52
2022/09/24 10:17:15;;;;;;;41.20;24.70;;;;;;;19.01;58.73;100828.53;5110494;28;20043;-52
2022/09/24 10:19:46;;;;;;;40.78;24.92;;;;;;;18.76;58.49;100829.09;5110601;28;20424;-52
2022/09/24 10:22:21;;;;;;;43.00;25.25;;;;;;;18.49;59.98;100828.25;5110396;28;20378;-51
2022/09/24 10:24:49;;;;;;;42.10;25.73;;;;;;;18.57;60.68;100829.91;5110282;28;20515;-53
2022/09/24 10:27:28;;;;;;;45.03;25.00;;;;;;;18.02;62.23;100835.34;5110275;28;20093;-50
2022/09/24 10:32:42;;;;;;;42.45;22.17;;;;;;;17.94;61.63;100836.34;5110157;28;20044;-53
2022/09/24 10:35:21;;;;;;;35.20;20.88;;;;;;;17.93;63.58;100836.53;5110841;28;20100;-52
2022/09/24 10:37:51;;;;;;;37.53;23.27;;;;;;;17.76;62.09;100839.53;5110021;28;20036;-52
2022/09/24 10:40:22;;;;;;;44.55;22.95;;;;;;;18.03;64.80;100834.31;5109938;28;20040;-52
2022/09/24 10:43:00;;;;;;;35.58;21.23;;;;;;;17.99;64.14;100841.94;5110476;28;20052;-48
2022/09/24 10:45:41;;;;;;;39.13;22.23;;;;;;;17.59;64.68;100841.72;5101545;28;20490;-48
2022/09/24 10:48:25;;;;;;;41.85;21.67;;;;;;;17.62;67.92;100841.31;5089620;28;20474;-50
2022/09/24 10:51:05;;;;;;;37.55;21.25;;;;;;;17.58;66.66;100839.25;5048838;28;20040;-51
2022/09/24 10:53:55;;;;;;;35.78;20.38;;;;;;;17.77;64.86;100843.03;5056067;28;20090;-51
2022/09/24 10:56:50;;;;;;;34.42;20.85;;;;;;;17.94;68.38;100841.72;5089322;28;20044;-51
2022/09/24 10:59:27;;;;;;;42.95;21.77;;;;;;;17.78;67.99;100840.16;5089204;28;20046;-50
2022/09/24 11:05:05;;;;;;;40.78;24.60;;;;;;;17.35;70.06;100839.50;5069636;28;20387;-52
2022/09/24 11:10:30;;;;;;;43.15;24.10;;;;;;;17.37;68.69;100838.31;5110590;27;20601;-49
2022/09/24 11:13:23;;;;;;;44.08;26.05;;;;;;;17.55;69.28;100845.00;5110422;28;20038;-51
2022/09/24 11:16:09;;;;;;;50.63;25.73;;;;;;;17.36;68.82;100843.84;5110658;28;20036;-52
2022/09/24 11:19:16;;;;;;;46.35;26.05;;;;;;;17.22;68.60;100833.03;5109383;28;20036;-52
2022/09/24 11:25:25;;;;;;;50.60;25.63;;;;;;;17.43;68.44;100834.00;5110338;27;20355;-51
2022/09/24 11:28:09;;;;;;;51.13;26.52;;;;;;;17.30;68.50;100828.53;5110822;28;20036;-52
2022/09/24 11:30:49;;;;;;;49.55;27.02;;;;;;;17.28;68.82;100831.41;5110694;28;20058;-50
2022/09/24 11:33:47;;;;;;;52.60;27.05;;;;;;;17.33;68.54;100834.34;5110814;28;20566;-51
2022/09/24 11:36:35;;;;;;;47.55;25.63;;;;;;;17.21;68.53;100830.56;5109989;28;20051;-51
2022/09/24 11:42:20;;;;;;;43.97;23.25;;;;;;;17.07;69.09;100829.63;5069961;28;20368;-51
2022/09/24 11:47:54;;;;;;;38.45;21.35;;;;;;;17.16;67.42;100825.78;5090472;28;20749;-52
2022/09/24 11:56:08;;;;;;;40.70;23.35;;;;;;;16.63;68.49;100825.31;5071792;28;20384;-50
2022/09/24 11:59:07;;;;;;;40.33;22.35;;;;;;;16.58;69.26;100819.69;5063259;28;20067;-52
2022/09/24 12:01:39;;;;;;;37.80;22.30;;;;;;;16.56;68.92;100811.84;5068959;28;20059;-52
2022/09/24 12:04:16;;;;;;;43.00;23.15;;;;;;;16.17;70.11;100815.78;5066133;28;20486;-52
2022/09/24 12:06:51;;;;;;;41.05;22.65;;;;;;;16.35;70.24;100811.84;5049697;28;20047;-52
2022/09/24 12:09:29;;;;;;;44.55;23.17;;;;;;;16.45;70.27;100813.19;5069783;28;20059;-52
2022/09/24 12:12:05;;;;;;;39.67;23.00;;;;;;;16.37;70.16;100810.66;5061817;28;20055;-51
2022/09/24 12:14:55;;;;;;;41.80;22.92;;;;;;;16.41;69.91;100808.38;5066336;28;20548;-52
2022/09/24 12:17:32;;;;;;;40.05;21.83;;;;;;;16.17;69.98;100802.41;5062396;28;20051;-52